Aeroporto :
LOGIN :

Iscrizione | Disclaimer

   EN    FR    IT 

 










Sommario :    VFR   VFR Marginale   IFR   IFR Intensivo   IFR Molto Intensivo
Visibilità : 
Base nubi : 
>= 8 km
>= 3000ft
5 / 8 km
1000 / 3000 ft
1500m / 5 km
500 / 1000 ft
800 / 1500m
200 / 500 ft
< 800m
< 200 ft
Simboli :   Temporali  Nebbia  Neve Forte  Precipitazioni Forti  Vento > 20 kt
SIGMETs :   Varie  Temporali  Ghiacco  Turbolenza  Onda orograficha  Ceneri Vulcaniche






- Altitudine del aeroporto : 15 ft
- Codice IATA : BHD


EGAC - George Best Belfast City

ULTIMO METAR :
  • 051650Z 22023KT 7000 RADZ BKN010 OVC022 12/11 Q0999

METARs OBSOLETI :
  • 051620Z AUTO 21021KT 9999 BKN010/// OVC022/// 12/11 Q0999 RERA REDZ
  • 051550Z AUTO 21021KT 8000 -RA OVC012/// 12/10 Q0999
  • 051520Z AUTO 21021KT 9999 BKN013/// OVC019/// 12/10 Q0999
  • 051450Z AUTO 21020KT 9999 BKN014/// OVC020/// 12/10 Q1000
  • 051420Z AUTO 20019G30KT 9999 -RA OVC015/// 11/09 Q1001

TAF TAF EGAC
Valido dal 05 a 15 ore il 05 a 22 ore UTC


051358Z 0515/0522 22022G37KT 9999 BKN015
TEMPO 0515/0522 5000 -RADZ RA BKN008
PROB40
TEMPO 0515/0518 3000 DZ RADZ BKN004
ATIS : +44 02890 935 124



MetMap, La meteo Aeronautica in un colpo d'occhio ! - Copyright ORBIFLY Dicembre 2007 - Disclaimer

ORBIFLY MET'MAP TEAM :

Programmazione e sviluppo : Alexandra Zaïnal
Concezione : Baudouin d'Aumeries
Aiuto per la programmazione : Marc-Olivier Méhu
Supporto tecnico e logistico : Manuel Goepfert
Aiuto per la traduzione : Arnaldo La Scala

Contatto : metmap@orbifly.com




FONTI E CREDITI :

   NOAA